createdAt,value
2024-01-19T00:01:28.552Z,-1.38
2024-01-19T00:03:56.069Z,-1.36
2024-01-19T00:06:23.619Z,-1.34
2024-01-19T00:08:51.240Z,-1.32
2024-01-19T00:11:18.847Z,-1.26
2024-01-19T00:13:47.346Z,-1.24
2024-01-19T00:16:14.948Z,-1.24
2024-01-19T00:18:42.437Z,-1.23
2024-01-19T00:21:10.006Z,-1.23
2024-01-19T00:23:37.607Z,-1.23
2024-01-19T00:26:05.124Z,-1.19
2024-01-19T00:28:32.595Z,-1.18
2024-01-19T00:31:00.121Z,-1.20
2024-01-19T00:33:28.046Z,-1.22
2024-01-19T00:35:55.755Z,-1.24
2024-01-19T00:38:23.499Z,-1.26
2024-01-19T00:40:51.176Z,-1.24
2024-01-19T00:43:18.729Z,-1.21
2024-01-19T00:45:46.259Z,-1.22
2024-01-19T00:48:14.048Z,-1.22
2024-01-19T00:50:41.621Z,-1.24
2024-01-19T00:53:10.118Z,-1.26
2024-01-19T00:55:37.644Z,-1.26
2024-01-19T00:58:05.189Z,-1.25
2024-01-19T01:00:32.716Z,-1.31
2024-01-19T01:03:00.532Z,-1.34
2024-01-19T01:05:28.753Z,-1.37
2024-01-19T01:07:56.276Z,-1.37
2024-01-19T01:10:23.760Z,-1.34
2024-01-19T01:12:51.295Z,-1.33
2024-01-19T01:15:18.847Z,-1.31
2024-01-19T01:17:46.420Z,-1.34
2024-01-19T01:20:14.435Z,-1.35
2024-01-19T01:22:42.014Z,-1.41
2024-01-19T01:25:09.514Z,-1.48
2024-01-19T01:27:37.003Z,-1.53
2024-01-19T01:30:05.009Z,-1.53
2024-01-19T01:32:32.713Z,-1.54
2024-01-19T01:35:00.333Z,-1.58
2024-01-19T01:37:27.833Z,-1.61
2024-01-19T01:39:55.318Z,-1.63
2024-01-19T01:42:22.848Z,-1.65
2024-01-19T01:44:50.476Z,-1.66
2024-01-19T01:47:18.417Z,-1.69
2024-01-19T01:49:46.277Z,-1.73
2024-01-19T01:52:13.962Z,-1.77
2024-01-19T01:54:41.455Z,-1.75
2024-01-19T01:57:09.022Z,-1.75
2024-01-19T01:59:36.591Z,-1.76
2024-01-19T02:02:04.151Z,-1.81
2024-01-19T02:04:31.804Z,-1.85
2024-01-19T02:06:59.471Z,-1.87
2024-01-19T02:09:27.094Z,-1.82
2024-01-19T02:11:54.858Z,-1.79
2024-01-19T02:14:22.503Z,-1.75
2024-01-19T02:16:50.011Z,-1.74
2024-01-19T02:19:17.679Z,-1.72
2024-01-19T02:21:45.312Z,-1.76
2024-01-19T02:24:12.776Z,-1.77
2024-01-19T02:26:40.366Z,-1.82
2024-01-19T02:29:08.011Z,-1.83
2024-01-19T02:31:35.876Z,-1.94
2024-01-19T02:34:03.401Z,-2.01
2024-01-19T02:36:30.889Z,-2.09
2024-01-19T02:38:58.506Z,-2.13
2024-01-19T02:41:26.246Z,-2.17
2024-01-19T02:43:53.746Z,-2.22
2024-01-19T02:46:21.257Z,-2.27
2024-01-19T02:48:48.837Z,-2.30
2024-01-19T02:51:16.456Z,-2.33
2024-01-19T02:53:44.294Z,-2.35
2024-01-19T02:56:11.771Z,-2.36
2024-01-19T02:58:39.347Z,-2.38
2024-01-19T03:01:07.142Z,-2.42
2024-01-19T03:03:34.697Z,-2.45
2024-01-19T03:06:02.425Z,-2.45
2024-01-19T03:08:29.988Z,-2.41
2024-01-19T03:10:57.472Z,-2.37
2024-01-19T03:13:25.084Z,-2.36
2024-01-19T03:15:52.603Z,-2.33
2024-01-19T03:18:20.447Z,-2.33
2024-01-19T03:20:48.154Z,-2.33
2024-01-19T03:23:15.705Z,-2.34
2024-01-19T03:25:43.246Z,-2.34
2024-01-19T03:28:10.763Z,-2.36
2024-01-19T03:30:38.234Z,-2.40
2024-01-19T03:33:05.838Z,-2.46
2024-01-19T03:35:33.497Z,-2.46
2024-01-19T03:38:01.011Z,-2.45
2024-01-19T03:40:28.604Z,-2.45
2024-01-19T03:42:56.113Z,-2.47
2024-01-19T03:45:23.623Z,-2.46
2024-01-19T03:47:51.172Z,-2.47
2024-01-19T03:50:18.803Z,-2.50
2024-01-19T03:52:46.404Z,-2.54
2024-01-19T03:57:41.367Z,-2.59
2024-01-19T04:00:08.992Z,-2.58
2024-01-19T04:02:36.757Z,-2.61
2024-01-19T04:05:04.362Z,-2.68
2024-01-19T04:07:31.987Z,-2.72
2024-01-19T04:09:59.530Z,-2.76
2024-01-19T04:12:27.001Z,-2.72
2024-01-19T04:14:54.671Z,-2.68
2024-01-19T04:17:22.250Z,-2.66
2024-01-19T04:19:49.858Z,-2.66
2024-01-19T04:22:17.347Z,-2.69
2024-01-19T04:24:44.867Z,-2.71
2024-01-19T04:27:12.879Z,-2.71
2024-01-19T04:29:40.390Z,-2.67
2024-01-19T04:32:07.959Z,-2.66
2024-01-19T04:34:35.565Z,-2.61
2024-01-19T04:37:03.227Z,-2.58
2024-01-19T04:39:30.866Z,-2.53
2024-01-19T04:41:58.421Z,-2.52
2024-01-19T04:44:26.127Z,-2.49
2024-01-19T04:46:53.816Z,-2.51
2024-01-19T04:49:21.359Z,-2.55
2024-01-19T04:51:48.888Z,-2.61
2024-01-19T04:54:16.447Z,-2.68
2024-01-19T04:56:45.313Z,-2.72
2024-01-19T04:59:12.993Z,-2.72
2024-01-19T05:01:40.521Z,-2.73
2024-01-19T05:04:08.085Z,-2.74
2024-01-19T05:06:35.886Z,-2.71
2024-01-19T05:09:03.714Z,-2.72
2024-01-19T05:11:31.669Z,-2.75
2024-01-19T05:13:59.264Z,-2.79
2024-01-19T05:16:26.745Z,-2.78
2024-01-19T05:18:54.353Z,-2.76
2024-01-19T05:21:21.910Z,-2.75
2024-01-19T05:23:49.485Z,-2.79
2024-01-19T05:26:17.050Z,-2.83
2024-01-19T05:28:44.672Z,-2.85
2024-01-19T05:31:12.179Z,-2.87
2024-01-19T05:33:40.500Z,-2.90
2024-01-19T05:36:08.384Z,-2.94
2024-01-19T05:38:36.015Z,-2.99
2024-01-19T05:41:03.760Z,-3.04
2024-01-19T05:43:31.315Z,-3.08
2024-01-19T05:45:59.018Z,-3.06
2024-01-19T05:48:26.853Z,-3.04
2024-01-19T05:50:54.830Z,-3.04
2024-01-19T05:53:22.737Z,-3.02
2024-01-19T05:55:50.283Z,-3.02
2024-01-19T05:58:18.134Z,-3.03
2024-01-19T06:00:45.693Z,-3.03
2024-01-19T06:03:13.365Z,-3.00
2024-01-19T06:05:41.151Z,-3.02
2024-01-19T06:08:08.831Z,-3.06
2024-01-19T06:10:36.299Z,-3.07
2024-01-19T06:13:03.978Z,-3.10
2024-01-19T06:15:31.521Z,-3.12
2024-01-19T06:17:59.191Z,-3.08
2024-01-19T06:20:26.748Z,-3.05
2024-01-19T06:22:54.617Z,-3.04
2024-01-19T06:25:22.242Z,-3.01
2024-01-19T06:27:49.769Z,-2.99
2024-01-19T06:30:17.370Z,-2.98
2024-01-19T06:32:44.950Z,-2.99
2024-01-19T06:35:12.589Z,-2.99
2024-01-19T06:37:40.509Z,-3.00
2024-01-19T06:40:07.997Z,-3.03
2024-01-19T06:42:35.531Z,-3.05
2024-01-19T06:45:03.143Z,-3.06
2024-01-19T06:47:31.079Z,-3.02
2024-01-19T06:49:58.621Z,-2.96
2024-01-19T06:52:26.226Z,-2.91
2024-01-19T06:54:53.712Z,-2.85
2024-01-19T06:57:21.228Z,-2.82
2024-01-19T06:59:48.811Z,-2.81
2024-01-19T07:02:16.324Z,-2.79
2024-01-19T07:04:43.827Z,-2.76
2024-01-19T07:07:11.356Z,-2.74
2024-01-19T07:09:38.862Z,-2.68
2024-01-19T07:12:06.463Z,-2.64
2024-01-19T07:14:34.129Z,-2.61
2024-01-19T07:17:01.817Z,-2.61
2024-01-19T07:19:29.383Z,-2.61
2024-01-19T07:21:56.936Z,-2.60
2024-01-19T07:24:24.461Z,-2.57
2024-01-19T07:26:51.999Z,-2.55
2024-01-19T07:29:19.615Z,-2.54
2024-01-19T07:31:47.182Z,-2.53
2024-01-19T07:34:14.776Z,-2.54
2024-01-19T07:36:42.544Z,-2.55
2024-01-19T07:39:10.122Z,-2.56
2024-01-19T07:41:37.620Z,-2.53
2024-01-19T07:44:05.135Z,-2.51
2024-01-19T07:46:32.659Z,-2.51
2024-01-19T07:49:00.315Z,-2.51
2024-01-19T07:51:28.280Z,-2.55
2024-01-19T07:53:55.943Z,-2.57
2024-01-19T07:56:23.519Z,-2.57
2024-01-19T07:58:51.126Z,-2.55
2024-01-19T08:01:18.665Z,-2.54
2024-01-19T08:03:46.308Z,-2.55
2024-01-19T08:06:14.069Z,-2.56
2024-01-19T08:08:41.605Z,-2.57
2024-01-19T08:11:09.549Z,-2.54
2024-01-19T08:13:37.048Z,-2.52
2024-01-19T08:16:04.633Z,-2.52
2024-01-19T08:18:34.272Z,-2.58
2024-01-19T08:21:03.392Z,-2.62
2024-01-19T08:23:30.943Z,-2.65
2024-01-19T08:26:00.780Z,-2.69
2024-01-19T08:28:29.652Z,-2.68
2024-01-19T08:30:57.307Z,-2.65
2024-01-19T08:33:25.044Z,-2.66
2024-01-19T08:35:52.595Z,-2.70
2024-01-19T08:38:20.195Z,-2.70
2024-01-19T08:40:47.701Z,-2.70
2024-01-19T08:43:15.253Z,-2.67
2024-01-19T08:45:42.846Z,-2.65
2024-01-19T08:48:10.668Z,-2.66
2024-01-19T08:50:38.364Z,-2.69
2024-01-19T08:53:06.042Z,-2.71
2024-01-19T08:55:33.552Z,-2.74
2024-01-19T08:58:01.071Z,-2.74
2024-01-19T09:00:28.596Z,-2.72
2024-01-19T09:03:00.817Z,-2.72
2024-01-19T09:05:32.521Z,-2.72
2024-01-19T09:08:00.398Z,-2.74
2024-01-19T09:10:27.927Z,-2.70
2024-01-19T09:12:55.437Z,-2.66
2024-01-19T09:15:23.055Z,-2.62
2024-01-19T09:17:50.833Z,-2.62
2024-01-19T09:20:18.489Z,-2.62
2024-01-19T09:22:46.056Z,-2.66
2024-01-19T09:25:13.523Z,-2.70
2024-01-19T09:27:41.055Z,-2.72
2024-01-19T09:30:08.669Z,-2.68
2024-01-19T09:32:36.427Z,-2.68
2024-01-19T09:35:04.026Z,-2.69
2024-01-19T09:37:31.503Z,-2.69
2024-01-19T09:39:59.066Z,-2.67
2024-01-19T09:42:26.675Z,-2.64
2024-01-19T09:44:54.379Z,-2.62
2024-01-19T09:47:21.949Z,-2.62
2024-01-19T09:49:49.466Z,-2.62
2024-01-19T09:52:17.045Z,-2.61
2024-01-19T09:54:44.686Z,-2.58
2024-01-19T09:57:12.163Z,-2.53
2024-01-19T09:59:39.677Z,-2.50
2024-01-19T10:02:07.207Z,-2.49
2024-01-19T10:04:34.734Z,-2.49
2024-01-19T10:07:02.253Z,-2.47
2024-01-19T10:09:29.891Z,-2.43
2024-01-19T10:11:57.485Z,-2.42
2024-01-19T10:14:25.078Z,-2.42
2024-01-19T10:16:52.682Z,-2.42
2024-01-19T10:19:20.265Z,-2.42
2024-01-19T10:21:47.758Z,-2.39
2024-01-19T10:24:15.323Z,-2.36
2024-01-19T10:26:42.903Z,-2.34
2024-01-19T10:29:10.761Z,-2.36
2024-01-19T10:31:38.285Z,-2.35
2024-01-19T10:34:05.942Z,-2.36
2024-01-19T10:36:33.639Z,-2.34
2024-01-19T10:39:01.195Z,-2.29
2024-01-19T10:41:28.880Z,-2.25
2024-01-19T10:43:56.639Z,-2.22
2024-01-19T10:46:24.185Z,-2.21
2024-01-19T10:48:52.105Z,-2.19
2024-01-19T10:51:19.812Z,-2.18
2024-01-19T10:53:47.329Z,-2.13
2024-01-19T10:56:14.865Z,-2.08
2024-01-19T10:58:42.461Z,-2.06
2024-01-19T11:01:10.062Z,-2.05
2024-01-19T11:03:37.641Z,-2.06
2024-01-19T11:06:05.601Z,-2.06
2024-01-19T11:08:46.190Z,-2.05
2024-01-19T11:11:13.726Z,-2.02
2024-01-19T11:13:41.197Z,-2.03
2024-01-19T11:16:08.833Z,-2.04
2024-01-19T11:18:36.644Z,-2.06
2024-01-19T11:21:04.305Z,-2.06
2024-01-19T11:23:31.884Z,-2.04
2024-01-19T11:25:59.684Z,-2.02
2024-01-19T11:28:27.177Z,-2.01
2024-01-19T11:30:54.669Z,-2.02
2024-01-19T11:33:22.245Z,-2.03
2024-01-19T11:35:50.020Z,-2.01
2024-01-19T11:38:17.667Z,-1.98
2024-01-19T11:40:45.175Z,-1.99
2024-01-19T11:43:12.625Z,-1.97
2024-01-19T11:45:40.225Z,-1.95
2024-01-19T11:48:07.848Z,-1.97
2024-01-19T11:50:35.474Z,-1.94
2024-01-19T11:53:02.978Z,-1.92
2024-01-19T11:55:30.510Z,-1.94
2024-01-19T11:57:58.012Z,-1.92
2024-01-19T12:00:25.629Z,-1.94
2024-01-19T12:02:53.283Z,-1.94
2024-01-19T12:05:20.992Z,-1.95
2024-01-19T12:07:48.540Z,-1.93
2024-01-19T12:10:16.230Z,-1.92
2024-01-19T12:12:43.861Z,-1.92
2024-01-19T12:15:11.785Z,-1.92
2024-01-19T12:17:39.573Z,-1.91
2024-01-19T12:20:07.119Z,-1.91
2024-01-19T12:22:34.707Z,-1.87
2024-01-19T12:25:02.213Z,-1.84
2024-01-19T12:27:30.883Z,-1.83
2024-01-19T12:29:59.503Z,-1.83
2024-01-19T12:32:27.027Z,-1.84
2024-01-19T12:34:55.849Z,-1.84
2024-01-19T12:37:24.336Z,-1.82
2024-01-19T12:39:51.840Z,-1.79
2024-01-19T12:42:19.605Z,-1.78
2024-01-19T12:44:47.133Z,-1.78
2024-01-19T12:47:14.615Z,-1.79
2024-01-19T12:49:48.985Z,-1.78
2024-01-19T12:52:21.100Z,-1.75
2024-01-19T12:54:48.599Z,-1.71
2024-01-19T12:57:17.575Z,-1.69
2024-01-19T12:59:45.358Z,-1.69
2024-01-19T13:02:12.870Z,-1.68
2024-01-19T13:04:40.427Z,-1.69
2024-01-19T13:07:08.086Z,-1.69
2024-01-19T13:09:35.757Z,-1.67
2024-01-19T13:12:03.623Z,-1.65
2024-01-19T13:14:31.189Z,-1.65
2024-01-19T13:16:58.720Z,-1.66
2024-01-19T13:19:26.404Z,-1.67
2024-01-19T13:21:56.898Z,-1.67
2024-01-19T13:24:26.771Z,-1.67
2024-01-19T13:26:54.921Z,-1.64
2024-01-19T13:29:22.587Z,-1.63
2024-01-19T13:31:50.517Z,-1.62
2024-01-19T13:34:18.162Z,-1.62
2024-01-19T13:36:45.689Z,-1.63
2024-01-19T13:39:13.196Z,-1.64
2024-01-19T13:41:40.723Z,-1.66
2024-01-19T13:44:08.359Z,-1.65
2024-01-19T13:46:35.892Z,-1.63
2024-01-19T13:49:03.595Z,-1.61
2024-01-19T13:51:31.284Z,-1.63
2024-01-19T13:53:58.759Z,-1.62
2024-01-19T13:56:26.304Z,-1.63
2024-01-19T13:58:53.980Z,-1.64
2024-01-19T14:01:22.190Z,-1.65
2024-01-19T14:03:49.967Z,-1.63
2024-01-19T14:06:17.604Z,-1.60
2024-01-19T14:08:45.514Z,-1.60
2024-01-19T14:11:13.105Z,-1.60
2024-01-19T14:13:40.782Z,-1.61
2024-01-19T14:16:08.576Z,-1.64
2024-01-19T14:18:37.083Z,-1.66
2024-01-19T14:21:04.720Z,-1.66
2024-01-19T14:23:32.321Z,-1.66
2024-01-19T14:26:00.074Z,-1.69
2024-01-19T14:28:27.756Z,-1.71
2024-01-19T14:30:55.341Z,-1.74
2024-01-19T14:33:22.974Z,-1.76
2024-01-19T14:35:50.628Z,-1.74
2024-01-19T14:38:18.185Z,-1.74
2024-01-19T14:40:45.744Z,-1.77
2024-01-19T14:43:13.286Z,-1.78
2024-01-19T14:45:40.827Z,-1.82
2024-01-19T14:48:08.400Z,-1.84
2024-01-19T14:50:36.094Z,-1.83
2024-01-19T14:53:04.078Z,-1.83
2024-01-19T14:55:32.050Z,-1.86
2024-01-19T14:58:00.279Z,-1.89
2024-01-19T15:00:27.945Z,-1.92
2024-01-19T15:02:55.559Z,-1.94
2024-01-19T15:05:23.105Z,-1.95
2024-01-19T15:07:50.778Z,-1.95
2024-01-19T15:10:18.399Z,-1.98
2024-01-19T15:12:45.914Z,-2.01
2024-01-19T15:15:13.434Z,-2.04
2024-01-19T15:17:41.042Z,-2.05
2024-01-19T15:20:08.655Z,-2.06
2024-01-19T15:22:36.290Z,-2.08
2024-01-19T15:25:03.816Z,-2.12
2024-01-19T15:27:31.307Z,-2.18
2024-01-19T15:29:58.954Z,-2.20
2024-01-19T15:32:26.561Z,-2.17
2024-01-19T15:34:54.235Z,-2.19
2024-01-19T15:37:21.827Z,-2.22
2024-01-19T15:39:49.305Z,-2.26
2024-01-19T15:42:16.803Z,-2.31
2024-01-19T15:44:44.368Z,-2.33
2024-01-19T15:47:11.898Z,-2.34
2024-01-19T15:49:39.537Z,-2.35
2024-01-19T15:52:07.285Z,-2.40
2024-01-19T15:54:34.915Z,-2.45
2024-01-19T15:57:02.391Z,-2.49
2024-01-19T15:59:30.448Z,-2.52
2024-01-19T16:01:58.217Z,-2.53
2024-01-19T16:04:25.763Z,-2.58
2024-01-19T16:06:53.243Z,-2.63
2024-01-19T16:09:20.977Z,-2.69
2024-01-19T16:11:49.125Z,-2.72
2024-01-19T16:14:16.629Z,-2.73
2024-01-19T16:16:44.176Z,-2.76
2024-01-19T16:19:11.812Z,-2.80
2024-01-19T16:21:39.328Z,-2.84
2024-01-19T16:24:06.834Z,-2.88
2024-01-19T16:26:34.353Z,-2.90
2024-01-19T16:29:01.960Z,-2.90
2024-01-19T16:31:29.548Z,-2.93
2024-01-19T16:33:57.106Z,-2.96
2024-01-19T16:36:24.759Z,-3.00
2024-01-19T16:38:52.237Z,-3.02
2024-01-19T16:41:20.151Z,-3.01
2024-01-19T16:43:47.899Z,-3.01
2024-01-19T16:46:15.415Z,-3.02
2024-01-19T16:48:43.050Z,-3.05
2024-01-19T16:51:10.605Z,-3.07
2024-01-19T16:53:38.099Z,-3.09
2024-01-19T16:56:05.650Z,-3.13
2024-01-19T16:58:33.154Z,-3.12
2024-01-19T17:01:00.728Z,-3.10
2024-01-19T17:03:28.364Z,-3.08
2024-01-19T17:05:56.338Z,-3.09
2024-01-19T17:08:24.060Z,-3.09
2024-01-19T17:10:51.602Z,-3.10
2024-01-19T17:13:19.139Z,-3.10
2024-01-19T17:15:46.629Z,-3.10
2024-01-19T17:18:14.295Z,-3.08
2024-01-19T17:20:41.851Z,-3.04
2024-01-19T17:23:09.532Z,-3.03
2024-01-19T17:25:37.216Z,-3.03
2024-01-19T17:28:04.732Z,-3.04
2024-01-19T17:30:32.216Z,-3.09
2024-01-19T17:33:00.415Z,-3.05
2024-01-19T17:35:28.348Z,-3.02
2024-01-19T17:37:56.139Z,-3.01
2024-01-19T17:40:23.906Z,-3.01
2024-01-19T17:42:51.491Z,-3.02
2024-01-19T17:45:22.235Z,-3.02
2024-01-19T17:47:53.220Z,-3.02
2024-01-19T17:50:21.868Z,-2.99
2024-01-19T17:52:49.505Z,-2.94
2024-01-19T17:55:17.227Z,-2.93
2024-01-19T17:57:44.876Z,-2.92
2024-01-19T18:00:12.340Z,-2.91
2024-01-19T18:02:39.944Z,-2.91
2024-01-19T18:05:07.634Z,-2.87
2024-01-19T18:07:35.583Z,-2.82
2024-01-19T18:10:03.465Z,-2.79
2024-01-19T18:12:31.174Z,-2.78
2024-01-19T18:14:59.227Z,-2.78
2024-01-19T18:17:27.005Z,-2.77
2024-01-19T18:19:54.799Z,-2.73
2024-01-19T18:22:22.858Z,-2.69
2024-01-19T18:24:50.358Z,-2.65
2024-01-19T18:27:18.017Z,-2.64
2024-01-19T18:29:46.809Z,-2.63
2024-01-19T18:32:16.453Z,-2.63
2024-01-19T18:34:44.627Z,-2.63
2024-01-19T18:37:12.114Z,-2.63
2024-01-19T18:39:39.667Z,-2.56
2024-01-19T18:42:07.340Z,-2.55
2024-01-19T18:44:34.928Z,-2.55
2024-01-19T18:47:02.495Z,-2.55
2024-01-19T18:49:30.157Z,-2.55
2024-01-19T18:51:57.826Z,-2.56
2024-01-19T18:54:25.633Z,-2.52
2024-01-19T18:56:53.309Z,-2.49
2024-01-19T18:59:21.247Z,-2.47
2024-01-19T19:01:49.261Z,-2.47
2024-01-19T19:04:17.427Z,-2.48
2024-01-19T19:06:45.079Z,-2.48
2024-01-19T19:09:12.845Z,-2.48
2024-01-19T19:11:41.181Z,-2.47
2024-01-19T19:14:09.238Z,-2.42
2024-01-19T19:16:45.264Z,-2.39
2024-01-19T19:19:15.362Z,-2.37
2024-01-19T19:21:43.050Z,-2.38
2024-01-19T19:24:10.603Z,-2.39
2024-01-19T19:26:38.073Z,-2.39
2024-01-19T19:29:05.647Z,-2.39
2024-01-19T19:31:33.443Z,-2.37
2024-01-19T19:34:01.745Z,-2.34
2024-01-19T19:36:29.654Z,-2.35
2024-01-19T19:38:57.134Z,-2.35
2024-01-19T19:41:24.704Z,-2.37
2024-01-19T19:43:52.321Z,-2.38
2024-01-19T19:46:19.812Z,-2.37
2024-01-19T19:48:47.349Z,-2.33
2024-01-19T19:51:14.923Z,-2.33
2024-01-19T19:53:42.463Z,-2.33
2024-01-19T19:56:10.191Z,-2.35
2024-01-19T19:58:40.804Z,-2.34
2024-01-19T20:01:09.497Z,-2.32
2024-01-19T20:03:37.082Z,-2.30
2024-01-19T20:06:04.582Z,-2.26
2024-01-19T20:08:32.858Z,-2.26
2024-01-19T20:11:01.982Z,-2.27
2024-01-19T20:13:29.600Z,-2.29
2024-01-19T20:15:57.182Z,-2.29
2024-01-19T20:18:25.088Z,-2.30
2024-01-19T20:20:52.896Z,-2.26
2024-01-19T20:23:20.862Z,-2.24
2024-01-19T20:25:48.446Z,-2.26
2024-01-19T20:28:16.003Z,-2.27
2024-01-19T20:30:43.971Z,-2.28
2024-01-19T20:33:11.585Z,-2.29
2024-01-19T20:35:39.360Z,-2.27
2024-01-19T20:38:07.307Z,-2.23
2024-01-19T20:40:35.124Z,-2.21
2024-01-19T20:43:02.736Z,-2.21
2024-01-19T20:45:30.287Z,-2.21
2024-01-19T20:47:57.768Z,-2.22
2024-01-19T20:50:25.717Z,-2.23
2024-01-19T20:52:53.423Z,-2.21
2024-01-19T20:55:21.031Z,-2.19
2024-01-19T20:57:48.508Z,-2.20
2024-01-19T21:00:16.134Z,-2.21
2024-01-19T21:02:43.726Z,-2.22
2024-01-19T21:05:11.776Z,-2.23
2024-01-19T21:07:39.539Z,-2.22
2024-01-19T21:10:07.375Z,-2.20
2024-01-19T21:12:36.430Z,-2.20
2024-01-19T21:15:08.968Z,-2.22
2024-01-19T21:17:36.549Z,-2.24
2024-01-19T21:20:04.433Z,-2.26
2024-01-19T21:22:32.185Z,-2.24
2024-01-19T21:25:02.107Z,-2.21
2024-01-19T21:27:32.468Z,-2.21
2024-01-19T21:30:00.022Z,-2.23
2024-01-19T21:32:27.645Z,-2.24
2024-01-19T21:34:55.454Z,-2.25
2024-01-19T21:37:23.117Z,-2.22
2024-01-19T21:39:50.728Z,-2.19
2024-01-19T21:42:18.560Z,-2.19
2024-01-19T21:44:46.250Z,-2.17
2024-01-19T21:47:14.385Z,-2.18
2024-01-19T21:49:42.186Z,-2.20
2024-01-19T21:52:10.056Z,-2.21
2024-01-19T21:54:37.799Z,-2.20
2024-01-19T21:57:05.378Z,-2.17
2024-01-19T21:59:32.878Z,-2.15
2024-01-19T22:02:00.506Z,-2.17
2024-01-19T22:04:28.636Z,-2.18
2024-01-19T22:06:56.412Z,-2.20
2024-01-19T22:09:24.052Z,-2.21
2024-01-19T22:11:58.885Z,-2.18
2024-01-19T22:14:27.419Z,-2.16
2024-01-19T22:16:55.285Z,-2.16
2024-01-19T22:19:23.327Z,-2.17
2024-01-19T22:21:51.063Z,-2.20
2024-01-19T22:24:18.572Z,-2.21
2024-01-19T22:26:46.146Z,-2.23
2024-01-19T22:29:14.108Z,-2.20
2024-01-19T22:31:42.654Z,-2.18
2024-01-19T22:34:12.000Z,-2.19
2024-01-19T22:36:41.332Z,-2.21
2024-01-19T22:39:08.974Z,-2.22
2024-01-19T22:41:36.650Z,-2.24
2024-01-19T22:44:04.316Z,-2.22
2024-01-19T22:46:32.006Z,-2.22
2024-01-19T22:48:59.752Z,-2.25
2024-01-19T22:51:27.802Z,-2.26
2024-01-19T22:53:55.639Z,-2.28
2024-01-19T22:56:23.672Z,-2.25
2024-01-19T22:58:51.444Z,-2.23
2024-01-19T23:01:19.285Z,-2.23
2024-01-19T23:03:46.945Z,-2.24
2024-01-19T23:06:14.984Z,-2.25
2024-01-19T23:08:42.527Z,-2.25
2024-01-19T23:11:10.447Z,-2.23
2024-01-19T23:13:38.350Z,-2.19
2024-01-19T23:16:06.263Z,-2.18
2024-01-19T23:18:33.789Z,-2.18
2024-01-19T23:21:01.362Z,-2.18
2024-01-19T23:23:30.135Z,-2.23
2024-01-19T23:25:57.810Z,-2.23
2024-01-19T23:28:25.484Z,-2.23
2024-01-19T23:30:53.199Z,-2.19
2024-01-19T23:33:21.987Z,-2.20
2024-01-19T23:35:50.194Z,-2.21
2024-01-19T23:38:17.914Z,-2.22
2024-01-19T23:40:45.805Z,-2.24
2024-01-19T23:43:13.875Z,-2.23
2024-01-19T23:45:42.546Z,-2.20
2024-01-19T23:48:10.162Z,-2.19
2024-01-19T23:50:37.777Z,-2.21
2024-01-19T23:53:05.501Z,-2.22
2024-01-19T23:55:33.278Z,-2.22
2024-01-19T23:58:00.976Z,-2.23
